This is the latest recevied weather packets stored in our database for station/object F5NTS. If no packets are shown the sender has not sent any weather packets the latest 10 day(s).
| Time | Temp. | Humidity | Pressure | Rain* | Wind** | Luminosity | Snow |
|---|---|---|---|---|---|---|---|
| 1777747205 | 16.67° C | 78% | 1009.9 hPa | 0 mm | - | - | - |
| 1777743904 | 18.33° C | 69% | 1010.2 hPa | 0 mm | - | - | - |
| 1777743604 | 18.89° C | 67% | 1010 hPa | 0 mm | - | - | - |
| 1777741204 | 21.11° C | 60% | 1009.6 hPa | 0 mm | - | - | - |
| 1777740005 | 22.22° C | 56% | 1010.2 hPa | 0 mm | - | - | - |
| 1777736704 | 26.11° C | 44% | 1010.5 hPa | 0 mm | - | - | - |
| 1777736104 | 26.11° C | 45% | 1010.8 hPa | 0 mm | - | - | - |
| 1777734604 | 26.11° C | 44% | 1011.3 hPa | 0 mm | - | - | - |
| 1777733104 | 27.22° C | 45% | 1011.4 hPa | 0 mm | - | - | - |
| 1777731904 | 26.67° C | 46% | 1012 hPa | 0 mm | - | - | - |
| 1777730705 | 26.67° C | 46% | 1012.1 hPa | 0 mm | - | - | - |
| 1777729504 | 26.67° C | 44% | 1012.4 hPa | 0 mm | - | - | - |
| 1777727404 | 26.67° C | 47% | 1013 hPa | 0 mm | - | - | - |
| 1777722005 | 24.44° C | 59% | 1014.3 hPa | 0 mm | - | - | - |
| 1777720504 | 24.44° C | 63% | 1014.5 hPa | 0 mm | - | - | - |
| 1777719604 | 22.22° C | 64% | 1014.8 hPa | 0 mm | - | - | - |
| 1777715405 | 21.67° C | 71% | 1015.7 hPa | 0 mm | - | - | - |
| 1777714204 | 20.56° C | 71% | 1015.6 hPa | 0 mm | - | - | - |
| 1777713604 | 20.56° C | 71% | 1015.6 hPa | 0 mm | - | - | - |
| 1777713005 | 20.56° C | 72% | 1016 hPa | 0 mm | - | - | - |
| 1777709404 | 18.89° C | 77% | 1015.6 hPa | 0 mm | - | - | - |
| 1777707304 | 17.78° C | 82% | 1015.8 hPa | 0 mm | - | - | - |
| 1777705504 | 16.11° C | 87% | 1015.9 hPa | 0 mm | - | - | - |
| 1777701904 | 12.22° C | 87% | 1015.8 hPa | 0 mm | - | - | - |
| 1777698304 | 11.67° C | 85% | 1015.4 hPa | 0 mm | - | - | - |
* Rain latest hour (hover to see other rain measurements)
** Current wind speed in m/s (hover to see current wind gust speed)